createdAt,value
2023-05-09T00:00:44.129Z,0.00
2023-05-09T00:01:44.132Z,0.00
2023-05-09T00:02:44.170Z,0.00
2023-05-09T00:03:44.109Z,0.00
2023-05-09T00:04:44.328Z,0.00
2023-05-09T00:05:44.081Z,0.00
2023-05-09T00:06:44.066Z,0.00
2023-05-09T00:07:44.045Z,0.00
2023-05-09T00:08:44.035Z,0.00
2023-05-09T00:09:44.046Z,0.00
2023-05-09T00:10:44.051Z,0.00
2023-05-09T00:11:44.011Z,0.00
2023-05-09T00:12:44.070Z,0.00
2023-05-09T00:13:44.075Z,0.00
2023-05-09T00:14:43.976Z,0.00
2023-05-09T00:15:43.979Z,0.00
2023-05-09T00:16:43.993Z,0.00
2023-05-09T00:17:43.955Z,0.00
2023-05-09T00:18:43.940Z,0.00
2023-05-09T00:19:43.931Z,0.00
2023-05-09T00:20:43.917Z,0.00
2023-05-09T00:21:43.898Z,0.00
2023-05-09T00:22:43.894Z,0.00
2023-05-09T00:23:43.883Z,0.00
2023-05-09T00:24:43.882Z,0.00
2023-05-09T00:25:43.852Z,0.00
2023-05-09T00:26:43.865Z,0.00
2023-05-09T00:27:43.824Z,0.00
2023-05-09T00:28:43.820Z,0.00
2023-05-09T00:29:43.821Z,0.00
2023-05-09T00:30:43.795Z,0.00
2023-05-09T00:31:43.810Z,0.00
2023-05-09T00:32:43.788Z,0.00
2023-05-09T00:33:43.755Z,0.00
2023-05-09T00:34:43.749Z,0.00
2023-05-09T00:35:43.765Z,0.00
2023-05-09T00:36:43.766Z,0.00
2023-05-09T00:37:43.733Z,0.00
2023-05-09T00:38:43.739Z,0.00
2023-05-09T00:39:43.729Z,0.00
2023-05-09T00:40:43.696Z,0.00
2023-05-09T00:41:43.688Z,0.00
2023-05-09T00:42:43.685Z,0.00
2023-05-09T00:43:43.662Z,0.00
2023-05-09T00:44:43.667Z,0.00
2023-05-09T00:45:43.657Z,0.00
2023-05-09T00:46:43.645Z,0.00
2023-05-09T00:47:43.635Z,0.00
2023-05-09T00:48:43.605Z,0.00
2023-05-09T00:49:43.609Z,0.00
2023-05-09T00:50:43.603Z,0.00
2023-05-09T00:51:43.566Z,0.00
2023-05-09T00:52:43.577Z,0.00
2023-05-09T00:53:43.539Z,0.00
2023-05-09T00:54:43.537Z,0.00
2023-05-09T00:55:43.523Z,0.00
2023-05-09T00:56:43.529Z,0.00
2023-05-09T00:57:43.494Z,0.00
2023-05-09T00:58:43.488Z,0.00
2023-05-09T00:59:43.503Z,0.00
2023-05-09T01:00:43.481Z,0.00
2023-05-09T01:01:43.489Z,0.00
2023-05-09T01:02:43.525Z,0.00
2023-05-09T01:03:43.648Z,0.00
2023-05-09T01:04:43.449Z,0.00
2023-05-09T01:05:43.419Z,0.00
2023-05-09T01:06:43.424Z,0.00
2023-05-09T01:07:43.412Z,0.00
2023-05-09T01:08:43.402Z,0.00
2023-05-09T01:09:43.363Z,0.00
2023-05-09T01:10:43.404Z,0.00
2023-05-09T01:11:43.357Z,0.00
2023-05-09T01:12:43.379Z,0.00
2023-05-09T01:13:43.330Z,0.00
2023-05-09T01:14:43.346Z,0.00
2023-05-09T01:15:43.329Z,0.00
2023-05-09T01:16:43.304Z,0.00
2023-05-09T01:17:43.331Z,0.00
2023-05-09T01:18:43.298Z,0.00
2023-05-09T01:19:43.278Z,0.00
2023-05-09T01:20:43.246Z,0.00
2023-05-09T01:21:43.257Z,0.00
2023-05-09T01:22:43.250Z,0.00
2023-05-09T01:23:43.250Z,0.00
2023-05-09T01:24:43.224Z,0.00
2023-05-09T01:25:43.199Z,0.00
2023-05-09T01:26:43.189Z,0.00
2023-05-09T01:27:43.187Z,0.00
2023-05-09T01:28:43.210Z,0.00
2023-05-09T01:29:43.164Z,0.00
2023-05-09T01:30:43.140Z,0.00
2023-05-09T01:31:43.176Z,0.00
2023-05-09T01:32:43.171Z,0.00
2023-05-09T01:33:43.108Z,0.00
2023-05-09T01:34:43.130Z,0.00
2023-05-09T01:35:43.100Z,0.00
2023-05-09T01:36:43.081Z,0.00
2023-05-09T01:37:43.084Z,0.00
2023-05-09T01:38:43.063Z,0.00
2023-05-09T01:39:43.062Z,0.00
2023-05-09T01:40:43.073Z,0.00
2023-05-09T01:41:43.033Z,0.00
2023-05-09T01:42:43.011Z,0.00
2023-05-09T01:43:42.999Z,0.00
2023-05-09T01:44:43.005Z,0.00
2023-05-09T01:45:42.984Z,0.00
2023-05-09T01:46:43.034Z,0.00
2023-05-09T01:47:42.968Z,0.00
2023-05-09T01:48:42.953Z,0.00
2023-05-09T01:49:42.951Z,0.00
2023-05-09T01:50:42.940Z,0.00
2023-05-09T01:51:43.783Z,0.00
2023-05-09T01:52:42.907Z,0.00
2023-05-09T01:53:42.877Z,0.00
2023-05-09T01:54:42.879Z,0.00
2023-05-09T01:55:42.890Z,0.00
2023-05-09T01:56:42.851Z,0.00
2023-05-09T01:57:42.833Z,0.00
2023-05-09T01:58:42.833Z,0.00
2023-05-09T01:59:42.809Z,0.00
2023-05-09T02:00:42.841Z,0.00
2023-05-09T02:01:42.794Z,0.00
2023-05-09T02:02:42.899Z,0.00
2023-05-09T02:03:42.781Z,0.00
2023-05-09T02:04:42.762Z,0.00
2023-05-09T02:05:42.757Z,0.00
2023-05-09T02:06:42.753Z,0.00
2023-05-09T02:07:42.727Z,0.00
2023-05-09T02:08:42.725Z,0.00
2023-05-09T02:09:42.708Z,0.00
2023-05-09T02:10:42.713Z,0.00
2023-05-09T02:11:42.707Z,0.00
2023-05-09T02:12:42.730Z,0.00
2023-05-09T02:13:42.664Z,0.00
2023-05-09T02:14:42.659Z,0.00
2023-05-09T02:15:42.640Z,0.00
2023-05-09T02:16:42.650Z,0.00
2023-05-09T02:17:42.644Z,0.00
2023-05-09T02:18:42.613Z,0.00
2023-05-09T02:19:42.596Z,0.00
2023-05-09T02:20:42.594Z,0.00
2023-05-09T02:21:42.586Z,0.00
2023-05-09T02:22:42.569Z,0.00
2023-05-09T02:23:42.548Z,0.00
2023-05-09T02:24:42.547Z,0.00
2023-05-09T02:25:42.524Z,0.00
2023-05-09T02:26:42.537Z,0.00
2023-05-09T02:27:42.515Z,0.00
2023-05-09T02:28:42.499Z,0.00
2023-05-09T02:29:42.508Z,0.00
2023-05-09T02:30:42.482Z,0.00
2023-05-09T02:31:42.531Z,0.00
2023-05-09T02:32:42.547Z,0.00
2023-05-09T02:33:42.440Z,0.00
2023-05-09T02:34:42.435Z,0.00
2023-05-09T02:35:42.437Z,0.00
2023-05-09T02:36:42.428Z,0.00
2023-05-09T02:37:42.417Z,0.00
2023-05-09T02:38:42.386Z,0.00
2023-05-09T02:39:42.373Z,0.00
2023-05-09T02:40:42.377Z,0.00
2023-05-09T02:41:42.377Z,0.00
2023-05-09T02:42:42.358Z,0.00
2023-05-09T02:43:42.333Z,0.00
2023-05-09T02:44:42.341Z,0.00
2023-05-09T02:45:42.367Z,0.00
2023-05-09T02:46:42.324Z,0.00
2023-05-09T02:47:42.316Z,0.00
2023-05-09T02:48:42.299Z,0.00
2023-05-09T02:49:42.295Z,0.00
2023-05-09T02:50:42.260Z,0.00
2023-05-09T02:51:42.247Z,0.00
2023-05-09T02:52:42.273Z,0.00
2023-05-09T02:53:42.235Z,0.00
2023-05-09T02:54:42.245Z,0.00
2023-05-09T02:55:42.206Z,0.00
2023-05-09T02:56:42.197Z,0.00
2023-05-09T02:57:42.178Z,0.00
2023-05-09T02:58:42.191Z,0.00
2023-05-09T02:59:42.161Z,0.00
2023-05-09T03:00:42.150Z,0.00
2023-05-09T03:01:42.154Z,0.00
2023-05-09T03:02:42.230Z,0.00
2023-05-09T03:03:42.215Z,0.00
2023-05-09T03:04:42.104Z,0.00
2023-05-09T03:05:42.097Z,0.00
2023-05-09T03:06:42.131Z,0.00
2023-05-09T03:07:42.073Z,0.00
2023-05-09T03:08:42.080Z,0.00
2023-05-09T03:09:42.066Z,0.00
2023-05-09T03:10:42.040Z,0.00
2023-05-09T03:11:42.029Z,0.00
2023-05-09T03:12:42.049Z,0.00
2023-05-09T03:13:42.010Z,0.00
2023-05-09T03:14:41.998Z,0.00
2023-05-09T03:15:42.007Z,0.00
2023-05-09T03:16:41.987Z,0.00
2023-05-09T03:17:42.076Z,0.00
2023-05-09T03:18:41.980Z,0.00
2023-05-09T03:19:41.947Z,0.00
2023-05-09T03:20:41.943Z,0.00
2023-05-09T03:21:41.935Z,0.00
2023-05-09T03:22:41.929Z,0.00
2023-05-09T03:23:41.904Z,4.00
2023-05-09T03:24:41.909Z,0.00
2023-05-09T03:25:41.884Z,0.00
2023-05-09T03:26:41.867Z,4.00
2023-05-09T03:27:41.867Z,4.00
2023-05-09T03:28:41.848Z,4.00
2023-05-09T03:29:41.842Z,4.00
2023-05-09T03:30:41.821Z,4.00
2023-05-09T03:31:41.847Z,4.00
2023-05-09T03:32:41.873Z,8.00
2023-05-09T03:33:41.803Z,8.00
2023-05-09T03:34:41.788Z,8.00
2023-05-09T03:35:41.888Z,8.00
2023-05-09T03:36:41.760Z,12.00
2023-05-09T03:37:41.773Z,12.00
2023-05-09T03:38:41.752Z,16.00
2023-05-09T03:39:42.467Z,16.00
2023-05-09T03:40:41.724Z,20.00
2023-05-09T03:41:42.256Z,20.00
2023-05-09T03:42:41.695Z,24.00
2023-05-09T03:43:41.690Z,28.00
2023-05-09T03:44:41.667Z,28.00
2023-05-09T03:45:41.665Z,32.00
2023-05-09T03:46:41.685Z,40.00
2023-05-09T03:47:41.689Z,40.00
2023-05-09T03:48:41.659Z,48.00
2023-05-09T03:49:41.632Z,52.00
2023-05-09T03:50:41.613Z,60.00
2023-05-09T03:51:42.237Z,64.00
2023-05-09T03:52:41.734Z,72.00
2023-05-09T03:53:41.592Z,76.00
2023-05-09T03:54:41.558Z,84.00
2023-05-09T03:55:41.570Z,92.00
2023-05-09T03:56:41.541Z,96.00
2023-05-09T03:57:41.578Z,108.00
2023-05-09T03:58:41.654Z,116.00
2023-05-09T03:59:41.657Z,128.00
2023-05-09T04:00:41.598Z,132.00
2023-05-09T04:01:41.707Z,140.00
2023-05-09T04:02:41.620Z,152.00
2023-05-09T04:03:41.557Z,156.00
2023-05-09T04:04:41.486Z,164.00
2023-05-09T04:05:41.824Z,172.00
2023-05-09T04:06:41.481Z,180.00
2023-05-09T04:07:41.529Z,192.00
2023-05-09T04:08:41.513Z,200.00
2023-05-09T04:09:41.493Z,208.00
2023-05-09T04:10:41.423Z,216.00
2023-05-09T04:11:41.510Z,224.00
2023-05-09T04:12:41.500Z,236.00
2023-05-09T04:13:41.458Z,248.00
2023-05-09T04:14:41.487Z,256.00
2023-05-09T04:15:41.347Z,268.00
2023-05-09T04:16:41.402Z,284.00
2023-05-09T04:17:41.392Z,292.00
2023-05-09T04:18:41.358Z,308.00
2023-05-09T04:19:41.330Z,320.00
2023-05-09T04:20:41.278Z,328.00
2023-05-09T04:21:41.274Z,340.00
2023-05-09T04:22:42.187Z,348.00
2023-05-09T04:23:41.399Z,360.00
2023-05-09T04:24:41.954Z,372.00
2023-05-09T04:25:41.401Z,380.00
2023-05-09T04:26:41.960Z,388.00
2023-05-09T04:27:41.265Z,404.00
2023-05-09T04:28:41.937Z,408.00
2023-05-09T04:29:41.225Z,412.00
2023-05-09T04:30:41.416Z,416.00
2023-05-09T04:31:41.276Z,424.00
2023-05-09T04:32:41.500Z,424.00
2023-05-09T04:33:41.147Z,432.00
2023-05-09T04:34:41.865Z,460.00
2023-05-09T04:35:41.163Z,488.00
2023-05-09T04:36:41.609Z,512.00
2023-05-09T04:37:41.108Z,528.00
2023-05-09T04:38:41.095Z,540.00
2023-05-09T04:39:41.083Z,548.00
2023-05-09T04:40:41.068Z,548.00
2023-05-09T04:41:41.059Z,560.00
2023-05-09T04:42:41.074Z,588.00
2023-05-09T04:43:41.045Z,628.00
2023-05-09T04:44:41.022Z,664.00
2023-05-09T04:45:41.017Z,692.00
2023-05-09T04:46:41.020Z,712.00
2023-05-09T04:47:41.015Z,728.00
2023-05-09T04:48:40.980Z,740.00
2023-05-09T04:49:40.972Z,752.00
2023-05-09T04:50:40.957Z,764.00
2023-05-09T04:51:40.953Z,780.00
2023-05-09T04:52:40.956Z,800.00
2023-05-09T04:53:40.935Z,816.00
2023-05-09T04:54:40.923Z,808.00
2023-05-09T04:55:40.907Z,812.00
2023-05-09T04:56:40.898Z,828.00
2023-05-09T04:57:40.893Z,832.00
2023-05-09T04:58:40.877Z,828.00
2023-05-09T04:59:40.863Z,832.00
2023-05-09T05:00:40.857Z,840.00
2023-05-09T05:01:40.928Z,852.00
2023-05-09T05:02:40.899Z,884.00
2023-05-09T05:03:40.826Z,912.00
2023-05-09T05:04:40.821Z,944.00
2023-05-09T05:05:40.866Z,968.00
2023-05-09T05:06:40.778Z,980.00
2023-05-09T05:07:40.781Z,980.00
2023-05-09T05:08:40.759Z,968.00
2023-05-09T05:09:40.752Z,960.00
2023-05-09T05:10:40.753Z,956.00
2023-05-09T05:11:47.499Z,956.00
2023-05-09T05:12:41.760Z,960.00
2023-05-09T05:13:40.715Z,980.00
2023-05-09T05:14:40.698Z,1000.00
2023-05-09T05:15:40.715Z,1028.00
2023-05-09T05:16:40.699Z,1044.00
2023-05-09T05:17:40.701Z,1056.00
2023-05-09T05:18:40.652Z,1060.00
2023-05-09T05:19:40.645Z,1064.00
2023-05-09T05:20:40.625Z,1068.00
2023-05-09T05:21:40.640Z,1076.00
2023-05-09T05:22:40.620Z,1088.00
2023-05-09T05:23:40.614Z,1096.00
2023-05-09T05:24:40.619Z,1100.00
2023-05-09T05:25:40.578Z,1100.00
2023-05-09T05:26:40.561Z,1092.00
2023-05-09T05:27:40.563Z,1076.00
2023-05-09T05:28:40.543Z,1056.00
2023-05-09T05:29:40.535Z,1040.00
2023-05-09T05:30:40.532Z,1036.00
2023-05-09T05:31:40.566Z,1044.00
2023-05-09T05:32:40.527Z,1060.00
2023-05-09T05:33:40.495Z,1072.00
2023-05-09T05:34:40.485Z,1068.00
2023-05-09T05:35:40.482Z,1056.00
2023-05-09T05:36:40.458Z,1036.00
2023-05-09T05:37:40.457Z,1028.00
2023-05-09T05:38:40.435Z,1028.00
2023-05-09T05:39:40.457Z,1044.00
2023-05-09T05:40:40.414Z,1080.00
2023-05-09T05:41:40.400Z,1104.00
2023-05-09T05:42:40.415Z,1108.00
2023-05-09T05:43:40.374Z,1124.00
2023-05-09T05:44:40.364Z,1156.00
2023-05-09T05:45:40.375Z,1172.00
2023-05-09T05:46:40.345Z,1192.00
2023-05-09T05:47:40.351Z,1212.00
2023-05-09T05:48:40.320Z,1248.00
2023-05-09T05:49:40.324Z,1304.00
2023-05-09T05:50:40.317Z,1364.00
2023-05-09T05:51:40.288Z,1428.00
2023-05-09T05:52:40.274Z,1512.00
2023-05-09T05:53:40.268Z,1588.00
2023-05-09T05:54:40.263Z,1620.00
2023-05-09T05:55:40.254Z,1636.00
2023-05-09T05:56:40.243Z,1640.00
2023-05-09T05:57:40.249Z,1656.00
2023-05-09T05:58:40.218Z,1672.00
2023-05-09T05:59:40.199Z,1692.00
2023-05-09T06:00:40.181Z,1720.00
2023-05-09T06:01:40.204Z,1756.00
2023-05-09T06:02:40.267Z,1800.00
2023-05-09T06:03:40.275Z,1828.00
2023-05-09T06:04:40.150Z,1836.00
2023-05-09T06:05:40.135Z,1868.00
2023-05-09T06:06:40.125Z,1896.00
2023-05-09T06:07:40.122Z,1912.00
2023-05-09T06:08:40.122Z,1924.00
2023-05-09T06:09:40.092Z,1964.00
2023-05-09T06:10:40.092Z,2028.00
2023-05-09T06:11:40.061Z,2120.00
2023-05-09T06:12:40.161Z,2248.00
2023-05-09T06:13:40.059Z,2360.00
2023-05-09T06:14:40.037Z,2376.00
2023-05-09T06:15:40.023Z,2328.00
2023-05-09T06:16:40.102Z,2264.00
2023-05-09T06:17:40.048Z,2232.00
2023-05-09T06:18:40.014Z,2224.00
2023-05-09T06:19:39.979Z,2264.00
2023-05-09T06:20:39.990Z,2292.00
2023-05-09T06:21:39.960Z,2308.00
2023-05-09T06:22:39.952Z,2320.00
2023-05-09T06:23:47.306Z,2284.00
2023-05-09T06:24:40.913Z,2288.00
2023-05-09T06:25:39.933Z,2300.00
2023-05-09T06:26:39.901Z,2336.00
2023-05-09T06:27:39.891Z,2392.00
2023-05-09T06:28:39.898Z,2396.00
2023-05-09T06:29:39.894Z,2348.00
2023-05-09T06:30:39.862Z,2260.00
2023-05-09T06:31:39.882Z,2208.00
2023-05-09T06:32:39.856Z,2188.00
2023-05-09T06:33:39.831Z,2192.00
2023-05-09T06:34:39.843Z,2176.00
2023-05-09T06:35:39.807Z,2196.00
2023-05-09T06:36:39.802Z,2200.00
2023-05-09T06:37:39.782Z,2184.00
2023-05-09T06:38:39.777Z,2140.00
2023-05-09T06:39:39.770Z,2080.00
2023-05-09T06:40:39.778Z,2024.00
2023-05-09T06:41:39.748Z,1980.00
2023-05-09T06:42:39.737Z,1944.00
2023-05-09T06:43:39.724Z,1924.00
2023-05-09T06:44:39.717Z,1900.00
2023-05-09T06:45:39.702Z,1868.00
2023-05-09T06:46:39.758Z,1840.00
2023-05-09T06:47:39.738Z,1812.00
2023-05-09T06:48:39.667Z,1788.00
2023-05-09T06:49:39.667Z,1780.00
2023-05-09T06:50:39.637Z,1732.00
2023-05-09T06:51:39.640Z,1716.00
2023-05-09T06:52:39.623Z,1732.00
2023-05-09T06:53:39.644Z,1804.00
2023-05-09T06:54:39.609Z,1944.00
2023-05-09T06:55:39.617Z,2148.00
2023-05-09T06:56:39.579Z,2308.00
2023-05-09T06:57:39.572Z,2376.00
2023-05-09T06:58:39.559Z,2356.00
2023-05-09T06:59:39.561Z,2304.00
2023-05-09T07:00:39.542Z,2268.00
2023-05-09T07:01:39.570Z,2252.00
2023-05-09T07:02:39.545Z,2240.00
2023-05-09T07:03:39.512Z,2276.00
2023-05-09T07:04:39.549Z,2368.00
2023-05-09T07:05:39.491Z,2464.00
2023-05-09T07:06:39.485Z,2532.00
2023-05-09T07:07:39.487Z,2568.00
2023-05-09T07:08:39.455Z,2596.00
2023-05-09T07:09:39.445Z,2608.00
2023-05-09T07:10:39.457Z,2628.00
2023-05-09T07:11:39.432Z,2708.00
2023-05-09T07:12:39.531Z,2824.00
2023-05-09T07:13:39.399Z,3012.00
2023-05-09T07:14:39.387Z,3228.00
2023-05-09T07:15:42.610Z,3396.00
2023-05-09T07:16:39.386Z,3404.00
2023-05-09T07:17:39.493Z,3352.00
2023-05-09T07:18:39.348Z,3288.00
2023-05-09T07:19:39.357Z,3216.00
2023-05-09T07:20:39.338Z,3176.00
2023-05-09T07:21:39.318Z,3148.00
2023-05-09T07:22:39.318Z,3088.00
2023-05-09T07:23:39.307Z,3036.00
2023-05-09T07:24:39.296Z,2992.00
2023-05-09T07:25:39.300Z,2948.00
2023-05-09T07:26:39.257Z,2928.00
2023-05-09T07:27:39.251Z,2940.00
2023-05-09T07:28:39.256Z,2992.00
2023-05-09T07:29:39.231Z,3072.00
2023-05-09T07:30:39.240Z,3132.00
2023-05-09T07:31:39.233Z,3212.00
2023-05-09T07:32:39.230Z,3260.00
2023-05-09T07:33:39.186Z,3320.00
2023-05-09T07:34:39.201Z,3384.00
2023-05-09T07:35:39.181Z,3432.00
2023-05-09T07:37:39.147Z,3452.00
2023-05-09T07:38:39.126Z,3436.00
2023-05-09T07:39:39.139Z,3360.00
2023-05-09T07:40:39.101Z,3220.00
2023-05-09T07:41:39.093Z,3116.00
2023-05-09T07:42:39.089Z,3052.00
2023-05-09T07:43:39.070Z,2992.00
2023-05-09T07:44:39.066Z,2944.00
2023-05-09T07:45:39.192Z,2932.00
2023-05-09T07:46:39.929Z,2920.00
2023-05-09T07:47:39.069Z,2852.00
2023-05-09T07:48:39.018Z,2808.00
2023-05-09T07:49:39.009Z,2816.00
2023-05-09T07:50:39.002Z,2748.00
2023-05-09T07:51:38.980Z,2788.00
2023-05-09T07:52:38.987Z,2848.00
2023-05-09T07:53:38.961Z,2908.00
2023-05-09T07:54:38.961Z,3032.00
2023-05-09T07:55:38.951Z,3140.00
2023-05-09T07:56:38.934Z,3228.00
2023-05-09T07:57:38.933Z,3328.00
2023-05-09T07:58:38.931Z,3412.00
2023-05-09T07:59:38.919Z,3400.00
2023-05-09T08:00:38.891Z,3348.00
2023-05-09T08:01:38.869Z,3212.00
2023-05-09T08:02:39.043Z,3124.00
2023-05-09T08:03:38.919Z,3084.00
2023-05-09T08:04:39.055Z,3024.00
2023-05-09T08:05:38.830Z,2968.00
2023-05-09T08:06:38.817Z,2892.00
2023-05-09T08:07:38.817Z,2824.00
2023-05-09T08:08:39.100Z,2784.00
2023-05-09T08:09:38.795Z,2736.00
2023-05-09T08:10:38.797Z,2672.00
2023-05-09T08:11:38.767Z,2572.00
2023-05-09T08:12:38.760Z,2500.00
2023-05-09T08:13:38.742Z,2428.00
2023-05-09T08:14:38.765Z,2420.00
2023-05-09T08:15:38.754Z,2416.00
2023-05-09T08:16:38.948Z,2396.00
2023-05-09T08:17:38.750Z,2372.00
2023-05-09T08:18:38.706Z,2360.00
2023-05-09T08:19:39.425Z,2288.00
2023-05-09T08:20:38.692Z,2216.00
2023-05-09T08:21:38.662Z,2176.00
2023-05-09T08:22:38.654Z,2156.00
2023-05-09T08:23:38.645Z,2152.00
2023-05-09T08:24:38.634Z,2172.00
2023-05-09T08:25:38.651Z,2204.00
2023-05-09T08:26:38.616Z,2252.00
2023-05-09T08:27:38.674Z,2304.00
2023-05-09T08:28:38.607Z,2372.00
2023-05-09T08:29:38.591Z,2484.00
2023-05-09T08:30:38.595Z,2548.00
2023-05-09T08:31:38.621Z,2620.00
2023-05-09T08:32:38.615Z,2672.00
2023-05-09T08:33:41.208Z,2696.00
2023-05-09T08:34:38.537Z,2716.00
2023-05-09T08:35:38.518Z,2748.00
2023-05-09T08:36:38.514Z,2804.00
2023-05-09T08:37:38.513Z,2828.00
2023-05-09T08:38:38.506Z,2832.00
2023-05-09T08:39:38.471Z,2852.00
2023-05-09T08:40:38.471Z,2876.00
2023-05-09T08:41:38.448Z,2880.00
2023-05-09T08:42:38.460Z,2880.00
2023-05-09T08:43:38.428Z,2932.00
2023-05-09T08:44:38.430Z,3000.00
2023-05-09T08:45:38.399Z,3036.00
2023-05-09T08:46:38.449Z,3076.00
2023-05-09T08:47:38.477Z,3096.00
2023-05-09T08:48:38.380Z,3140.00
2023-05-09T08:49:38.361Z,3192.00
2023-05-09T08:50:38.362Z,3252.00
2023-05-09T08:51:38.433Z,3296.00
2023-05-09T08:52:38.341Z,3356.00
2023-05-09T08:53:38.330Z,3420.00
2023-05-09T08:54:38.310Z,3524.00
2023-05-09T08:55:38.299Z,3608.00
2023-05-09T08:56:38.299Z,3696.00
2023-05-09T08:57:38.299Z,3768.00
2023-05-09T08:58:38.301Z,3848.00
2023-05-09T08:59:38.255Z,3932.00
2023-05-09T09:00:38.240Z,4000.00
2023-05-09T09:01:38.345Z,4052.00
2023-05-09T09:02:38.278Z,4112.00
2023-05-09T09:03:38.212Z,4164.00
2023-05-09T09:04:38.243Z,4180.00
2023-05-09T09:05:41.917Z,4204.00
2023-05-09T09:06:38.191Z,4176.00
2023-05-09T09:07:38.169Z,4232.00
2023-05-09T09:08:38.160Z,4304.00
2023-05-09T09:09:38.142Z,4300.00
2023-05-09T09:10:38.137Z,4208.00
2023-05-09T09:11:38.132Z,4260.00
2023-05-09T09:12:38.123Z,4452.00
2023-05-09T09:13:38.097Z,4364.00
2023-05-09T09:14:38.108Z,4404.00
2023-05-09T09:15:38.079Z,4488.00
2023-05-09T09:16:38.108Z,4528.00
2023-05-09T09:17:38.208Z,4460.00
2023-05-09T09:18:39.611Z,4416.00
2023-05-09T09:19:38.047Z,4404.00
2023-05-09T09:20:38.030Z,4576.00
2023-05-09T09:21:38.014Z,4808.00
2023-05-09T09:22:38.010Z,4612.00
2023-05-09T09:23:37.988Z,4372.00
2023-05-09T09:24:37.999Z,4396.00
2023-05-09T09:25:37.976Z,4416.00
2023-05-09T09:26:37.964Z,4308.00
2023-05-09T09:27:37.952Z,4092.00
2023-05-09T09:28:37.975Z,3876.00
2023-05-09T09:29:37.926Z,3844.00
2023-05-09T09:30:37.920Z,3824.00
2023-05-09T09:31:37.909Z,3964.00
2023-05-09T09:32:37.937Z,4124.00
2023-05-09T09:33:37.885Z,4240.00
2023-05-09T09:34:37.887Z,4464.00
2023-05-09T09:35:37.863Z,4444.00
2023-05-09T09:36:37.856Z,4660.00
2023-05-09T09:37:37.843Z,4988.00
2023-05-09T09:38:37.835Z,5060.00
2023-05-09T09:39:37.828Z,4720.00
2023-05-09T09:40:37.816Z,4560.00
2023-05-09T09:41:37.828Z,4544.00
2023-05-09T09:42:37.823Z,4764.00
2023-05-09T09:43:37.774Z,5180.00
2023-05-09T09:44:37.768Z,5640.00
2023-05-09T09:45:37.808Z,6124.00
2023-05-09T09:46:37.788Z,6548.00
2023-05-09T09:47:37.782Z,6868.00
2023-05-09T09:48:37.728Z,7460.00
2023-05-09T09:49:37.717Z,7696.00
2023-05-09T09:50:37.710Z,7584.00
2023-05-09T09:51:37.692Z,7364.00
2023-05-09T09:52:37.722Z,6908.00
2023-05-09T09:53:37.660Z,6380.00
2023-05-09T09:54:37.663Z,6096.00
2023-05-09T09:55:37.665Z,5964.00
2023-05-09T09:56:37.653Z,6048.00
2023-05-09T09:57:37.668Z,6192.00
2023-05-09T09:58:37.662Z,6288.00
2023-05-09T09:59:37.599Z,6372.00
2023-05-09T10:00:37.609Z,6532.00
2023-05-09T10:01:37.700Z,6760.00
2023-05-09T10:02:37.613Z,6840.00
2023-05-09T10:03:37.726Z,6844.00
2023-05-09T10:04:37.622Z,6680.00
2023-05-09T10:05:37.534Z,6552.00
2023-05-09T10:06:37.524Z,6540.00
2023-05-09T10:07:37.522Z,6592.00
2023-05-09T10:08:37.541Z,6612.00
2023-05-09T10:09:37.498Z,6612.00
2023-05-09T10:10:37.515Z,6704.00
2023-05-09T10:11:37.473Z,6700.00
2023-05-09T10:12:37.470Z,6540.00
2023-05-09T10:13:37.450Z,6272.00
2023-05-09T10:14:37.466Z,6152.00
2023-05-09T10:15:49.419Z,6092.00
2023-05-09T10:16:43.838Z,6320.00
2023-05-09T10:17:38.514Z,6596.00
2023-05-09T10:18:37.595Z,6288.00
2023-05-09T10:19:37.404Z,5416.00
2023-05-09T10:20:37.382Z,5212.00
2023-05-09T10:21:38.091Z,5296.00
2023-05-09T10:22:37.353Z,6012.00
2023-05-09T10:23:37.358Z,6172.00
2023-05-09T10:24:37.336Z,6304.00
2023-05-09T10:25:37.318Z,6476.00
2023-05-09T10:26:37.320Z,6888.00
2023-05-09T10:27:37.310Z,6932.00
2023-05-09T10:28:37.286Z,6092.00
2023-05-09T10:29:37.274Z,6032.00
2023-05-09T10:30:37.265Z,6324.00
2023-05-09T10:31:37.336Z,6808.00
2023-05-09T10:32:37.291Z,7620.00
2023-05-09T10:33:37.234Z,7916.00
2023-05-09T10:34:37.230Z,7732.00
2023-05-09T10:35:37.214Z,7640.00
2023-05-09T10:36:37.222Z,7748.00
2023-05-09T10:37:37.178Z,7876.00
2023-05-09T10:38:37.186Z,7860.00
2023-05-09T10:39:37.186Z,7312.00
2023-05-09T10:40:37.163Z,6800.00
2023-05-09T10:41:37.146Z,6624.00
2023-05-09T10:42:37.153Z,6840.00
2023-05-09T10:43:37.115Z,7812.00
2023-05-09T10:44:37.129Z,8824.00
2023-05-09T10:45:37.223Z,9196.00
2023-05-09T10:46:37.168Z,9252.00
2023-05-09T10:47:37.127Z,9244.00
2023-05-09T10:48:37.071Z,9036.00
2023-05-09T10:49:37.377Z,8660.00
2023-05-09T10:50:37.068Z,8088.00
2023-05-09T10:51:37.046Z,7468.00
2023-05-09T10:52:37.048Z,7176.00
2023-05-09T10:53:37.025Z,7128.00
2023-05-09T10:54:37.002Z,7492.00
2023-05-09T10:55:37.029Z,7348.00
2023-05-09T10:56:36.984Z,6724.00
2023-05-09T10:57:36.970Z,6180.00
2023-05-09T10:58:36.984Z,5900.00
2023-05-09T10:59:36.946Z,5592.00
2023-05-09T11:00:36.940Z,5924.00
2023-05-09T11:01:37.231Z,7000.00
2023-05-09T11:02:36.952Z,7860.00
2023-05-09T11:03:37.142Z,7296.00
2023-05-09T11:04:36.905Z,6396.00
2023-05-09T11:05:36.884Z,5820.00
2023-05-09T11:06:36.903Z,6036.00
2023-05-09T11:07:36.859Z,6440.00
2023-05-09T11:08:36.861Z,6180.00
2023-05-09T11:09:36.862Z,7136.00
2023-05-09T11:10:36.845Z,8692.00
2023-05-09T11:11:36.819Z,9964.00
2023-05-09T11:12:36.811Z,9600.00
2023-05-09T11:13:36.837Z,8684.00
2023-05-09T11:14:36.811Z,8424.00
2023-05-09T11:15:36.799Z,8320.00
2023-05-09T11:16:36.805Z,8144.00
2023-05-09T11:17:36.775Z,7792.00
2023-05-09T11:18:36.753Z,8172.00
2023-05-09T11:19:36.738Z,9248.00
2023-05-09T11:20:36.762Z,9692.00
2023-05-09T11:21:36.711Z,9224.00
2023-05-09T11:22:36.756Z,8772.00
2023-05-09T11:23:36.729Z,8628.00
2023-05-09T11:24:36.702Z,8712.00
2023-05-09T11:25:36.665Z,9056.00
2023-05-09T11:26:36.666Z,8868.00
2023-05-09T11:27:36.651Z,8632.00
2023-05-09T11:28:36.743Z,8940.00
2023-05-09T11:29:36.639Z,9536.00
2023-05-09T11:30:36.639Z,9600.00
2023-05-09T11:31:36.649Z,9432.00
2023-05-09T11:32:36.633Z,9576.00
2023-05-09T11:33:36.596Z,9696.00
2023-05-09T11:34:36.579Z,9596.00
2023-05-09T11:35:36.571Z,9372.00
2023-05-09T11:36:36.566Z,9312.00
2023-05-09T11:37:36.549Z,9740.00
2023-05-09T11:38:36.582Z,10560.00
2023-05-09T11:39:36.533Z,10312.00
2023-05-09T11:40:36.526Z,10116.00
2023-05-09T11:41:36.526Z,10072.00
2023-05-09T11:42:36.497Z,9932.00
2023-05-09T11:43:36.478Z,9636.00
2023-05-09T11:44:36.488Z,8804.00
2023-05-09T11:45:36.499Z,8444.00
2023-05-09T11:46:36.456Z,7960.00
2023-05-09T11:47:36.467Z,7364.00
2023-05-09T11:48:36.424Z,7500.00
2023-05-09T11:49:36.449Z,8164.00
2023-05-09T11:50:36.401Z,9308.00
2023-05-09T11:51:36.387Z,9020.00
2023-05-09T11:52:36.391Z,8948.00
2023-05-09T11:53:36.386Z,9512.00
2023-05-09T11:54:36.382Z,9288.00
2023-05-09T11:55:36.413Z,8772.00
2023-05-09T11:56:36.354Z,8496.00
2023-05-09T11:57:36.327Z,8872.00
2023-05-09T11:58:36.327Z,8608.00
2023-05-09T11:59:36.308Z,7428.00
2023-05-09T12:00:36.290Z,7652.00
2023-05-09T12:01:36.336Z,8792.00
2023-05-09T12:02:36.364Z,10892.00
2023-05-09T12:03:36.324Z,12224.00
2023-05-09T12:04:36.288Z,10536.00
2023-05-09T12:05:36.263Z,9548.00
2023-05-09T12:06:36.222Z,11508.00
2023-05-09T12:07:36.215Z,13460.00
2023-05-09T12:08:36.254Z,14460.00
2023-05-09T12:09:36.200Z,14700.00
2023-05-09T12:10:36.212Z,14912.00
2023-05-09T12:11:36.208Z,12068.00
2023-05-09T12:12:36.191Z,11592.00
2023-05-09T12:13:36.211Z,15768.00
2023-05-09T12:14:36.159Z,15776.00
2023-05-09T12:15:36.131Z,15488.00
2023-05-09T12:16:36.218Z,15536.00
2023-05-09T12:17:37.235Z,15696.00
2023-05-09T12:18:36.178Z,16416.00
2023-05-09T12:19:36.110Z,16544.00
2023-05-09T12:20:36.075Z,16736.00
2023-05-09T12:21:36.081Z,16960.00
2023-05-09T12:22:36.060Z,17120.00
2023-05-09T12:23:36.052Z,16448.00
2023-05-09T12:24:36.033Z,17600.00
2023-05-09T12:25:36.026Z,17152.00
2023-05-09T12:26:36.030Z,16800.00
2023-05-09T12:27:36.001Z,16544.00
2023-05-09T12:28:35.985Z,12988.00
2023-05-09T12:29:35.985Z,13976.00